Flight Track Log - Related Links

Times and Time Zones

All times are in EST time to prevent confusion due to time zone crossing. See the EJA307 flight status page for this flight to view local times or setup timezone preferences in your user account.

Time Position Orientation Groundspeed Altitude Reporting Facility
EST Latitude Longitude Course Direction KTS MPH feet Rate Location/Type
Sun 11:42:39 AM 28.4333 -81.3167 360° North 135 155 800  Level Orlando TRACON
Sun 11:43:40 AM 28.4833 -81.3167 360° North 246 283 4,300 3,698 Climbing Orlando TRACON
Sun 11:45:18 AM 28.6033 -81.3036 North 278 320 10,600 2,467 Climbing Jacksonville Center
Sun 11:47:00 AM 28.7726 -81.3500 North  Level FlightAware Approximate
Sun 11:52:18 AM 29.2322 -81.5456 319° Northwest 390 449 25,600  Level Jacksonville Center
Sun 11:53:18 AM 29.3411 -81.5822 344° North 395 455 27,400 1,750 Climbing Jacksonville Center
Sun 11:54:00 AM 29.4881 -81.4167 North  Level FlightAware Approximate
Sun 11:54:18 AM 29.4522 -81.6214 343° North 401 461 29,100  Level Jacksonville Center
Sun 11:55:00 AM 29.5881 -81.4333 North  Level FlightAware Approximate
Sun 11:55:18 AM 29.5633 -81.6606 343° North 407 468 30,700  Level Jacksonville Center
Sun 11:56:00 AM 29.6910 -81.4333 360° North  Level FlightAware Approximate
Sun 11:56:18 AM 29.6764 -81.7022 342° North 413 475 32,300  Level Jacksonville Center
Sun 11:57:00 AM 29.7861 -81.4694 319° Northwest  Level FlightAware Approximate
Sun 11:57:18 AM 29.7875 -81.7392 344° North 413 475 33,900  Level Jacksonville Center
Sun 11:58:00 AM 29.8639 -81.5471 319° Northwest  Level FlightAware Approximate
Sun 11:58:18 AM 29.8983 -81.7833 341° North 413 475 35,400  Level Jacksonville Center
Sun 11:59:00 AM 29.9416 -81.6249 319° Northwest  Level FlightAware Approximate
Sun 11:59:18 AM 30.0053 -81.8275 340° North 413 475 37,000  Level Jacksonville Center
Sun 12:00:00 PM 30.0195 -81.7027 319° Northwest  Level FlightAware Approximate
Sun 12:00:18 PM 30.1119 -81.8672 342° North 408 470 38,500  Level Jacksonville Center
Sun 12:01:00 PM 30.0973 -81.7806 319° Northwest  Level FlightAware Approximate
Sun 12:01:18 PM 30.2147 -81.9094 340° North 397 457 40,100  Level Jacksonville Center
Sun 12:02:00 PM 30.1751 -81.8585 319° Northwest  Level FlightAware Approximate
Sun 12:02:18 PM 30.3153 -81.9542 339° North 391 450 41,000  Level Jacksonville Center
Sun 12:03:18 PM 30.4200 -81.9989 340° North 400 460 41,000  Level Jacksonville Center
Sun 12:04:18 PM 30.5308 -82.0461 340° North 415 478 41,000  Level Jacksonville Center
Sun 12:05:18 PM 30.6336 -82.0933 338° Northwest 420 483 41,000  Level Jacksonville Center
Sun 12:06:18 PM 30.7444 -82.1408 340° North 420 483 41,000  Level Jacksonville Center
Sun 12:07:18 PM 30.8575 -82.1908 339° North 426 490 41,000  Level Jacksonville Center
Sun 12:08:18 PM 30.9728 -82.2383 341° North 431 496 41,000  Level Jacksonville Center
Sun 12:09:18 PM 31.0856 -82.2886 339° North 431 496 41,000  Level Jacksonville Center
Sun 12:10:18 PM 31.1986 -82.3389 339° North 431 496 41,000  Level Jacksonville Center
Sun 12:11:18 PM 31.3136 -82.3867 340° North 431 496 41,000  Level Jacksonville Center
Sun 12:13:09 PM 31.5342 -82.4794 340° North 445 512 41,000  Level Atlanta Center
Sun 12:14:09 PM 31.6475 -82.5289 340° North 445 512 41,000  Level Atlanta Center
Sun 12:15:09 PM 31.7608 -82.5783 340° North 434 499 41,000  Level Atlanta Center
Sun 12:16:09 PM 31.8719 -82.6253 340° North 434 499 41,000  Level Atlanta Center
Sun 12:17:09 PM 31.9853 -82.6750 340° North 434 499 41,000  Level Atlanta Center
Sun 12:18:09 PM 32.0861 -82.7200 339° North 434 499 41,000  Level Atlanta Center
Sun 12:19:09 PM 32.1992 -82.7700 339° North 434 499 41,000  Level Atlanta Center
Sun 12:20:09 PM 32.3125 -82.8200 340° North 434 499 41,000  Level Atlanta Center
Sun 12:21:09 PM 32.4214 -82.8700 339° North 428 493 41,000  Level Atlanta Center
Sun 12:22:09 PM 32.5264 -82.9156 340° North 423 487 41,000 -150 Level Atlanta Center
Sun 12:23:09 PM 32.6417 -82.9683 339° North 423 487 40,700 -500 Descending Atlanta Center
Sun 12:24:09 PM 32.7547 -83.0164 340° North 423 487 40,000 -350 Descending Atlanta Center
Sun 12:25:09 PM 32.8594 -83.0644 339° North 418 481 40,000  Level Atlanta Center
Sun 12:26:09 PM 32.9725 -83.1153 339° North 418 481 40,000  Level Atlanta Center
Sun 12:27:09 PM 33.0939 -83.1733 338° Northwest 418 481 40,000  Level Atlanta Center
Sun 12:28:09 PM 33.2069 -83.2194 341° North 430 495 40,000  Level Atlanta Center
Sun 12:29:09 PM 33.3181 -83.2731 338° Northwest 430 495 40,000  Level Atlanta Center
Sun 12:30:09 PM 33.4206 -83.3194 339° North 430 495 40,000  Level Atlanta Center
Sun 12:31:09 PM 33.5314 -83.3658 341° North 430 495 40,000  Level Atlanta Center
Sun 12:32:09 PM 33.6467 -83.4200 339° North 435 501 40,000  Level Atlanta Center
Sun 12:33:09 PM 33.7575 -83.4692 340° North 429 494 40,000  Level Atlanta Center
Sun 12:34:09 PM 33.8703 -83.5233 338° Northwest 434 499 40,000  Level Atlanta Center
Sun 12:35:09 PM 33.9811 -83.5703 341° North 429 494 40,000  Level Atlanta Center
Sun 12:36:09 PM 34.0942 -83.6225 339° North 429 494 40,000  Level Atlanta Center
Sun 12:37:09 PM 34.2069 -83.6744 339° North 434 499 40,000  Level Atlanta Center
Sun 12:38:09 PM 34.3178 -83.7269 339° North 429 494 40,000  Level Atlanta Center
Sun 12:39:09 PM 34.4283 -83.7769 340° North 429 494 40,000  Level Atlanta Center
Sun 12:40:09 PM 34.5517 -83.8344 339° North 429 494 40,000  Level Atlanta Center
Sun 12:41:09 PM 34.6625 -83.8847 340° North 429 494 40,000  Level Atlanta Center
Sun 12:42:09 PM 34.7731 -83.9428 337° Northwest 429 494 40,000  Level Atlanta Center
Sun 12:43:09 PM 34.8817 -83.9931 339° North 429 494 40,000  Level Atlanta Center
Sun 12:44:09 PM 34.9942 -84.0464 339° North 429 494 40,000  Level Atlanta Center
Sun 12:45:09 PM 35.1047 -84.0997 338° Northwest 434 499 40,000  Level Atlanta Center
Sun 12:46:09 PM 35.2175 -84.1531 339° North 429 494 40,000  Level Atlanta Center
Sun 12:47:09 PM 35.3281 -84.2042 339° North 434 499 40,000  Level Atlanta Center
Sun 12:48:09 PM 35.4386 -84.2553 339° North 429 494 40,000  Level Atlanta Center
Sun 12:49:09 PM 35.5489 -84.3092 338° Northwest 429 494 40,000  Level Atlanta Center
Sun 12:50:09 PM 35.6594 -84.3633 338° Northwest 429 494 40,000  Level Atlanta Center
Sun 12:51:40 PM 35.8303 -84.4436 339° North 428 493 40,000  Level Indianapolis Center
Sun 12:52:42 PM 35.9392 -84.4961 339° North 425 489 40,000  Level Indianapolis Center
Sun 12:53:44 PM 36.0478 -84.5486 339° North 424 488 40,000  Level Indianapolis Center
Sun 12:54:46 PM 36.1556 -84.6014 338° Northwest 422 486 40,000  Level Indianapolis Center
Sun 12:55:48 PM 36.2628 -84.6536 339° North 418 481 40,000  Level Indianapolis Center
Sun 12:56:50 PM 36.3931 -84.7181 338° Northwest 420 483 40,000  Level Indianapolis Center
Sun 12:57:52 PM 36.5017 -84.7711 339° North 421 484 40,000  Level Indianapolis Center
Sun 12:58:54 PM 36.6089 -84.8242 338° Northwest 417 480 40,000  Level Indianapolis Center
Sun 12:59:56 PM 36.7181 -84.8783 338° Northwest 423 487 40,000  Level Indianapolis Center
Sun 01:00:58 PM 36.8272 -84.9325 338° Northwest 423 487 40,000  Level Indianapolis Center
Sun 01:02:00 PM 36.9356 -84.9858 339° North 419 482 40,000  Level Indianapolis Center
Sun 01:03:02 PM 37.0603 -85.0492 338° Northwest 416 479 40,000  Level Indianapolis Center
Sun 01:04:04 PM 37.1686 -85.1031 338° Northwest 416 479 40,000  Level Indianapolis Center
Sun 01:05:06 PM 37.2750 -85.1564 338° Northwest 413 475 40,000  Level Indianapolis Center
Sun 01:06:08 PM 37.3828 -85.2111 338° Northwest 414 476 40,000  Level Indianapolis Center
Sun 01:07:10 PM 37.4933 -85.2608 340° North 420 483 40,000  Level Indianapolis Center
Sun 01:08:12 PM 37.6281 -85.2972 348° North 424 488 40,000  Level Indianapolis Center
Sun 01:09:14 PM 37.7453 -85.3250 349° North 425 489 40,000  Level Indianapolis Center
Sun 01:10:15 PM 37.8553 -85.3514 349° North 433 498 40,000  Level Indianapolis Center
Sun 01:11:17 PM 37.9733 -85.3828 348° North 433 498 40,000  Level Indianapolis Center
Sun 01:12:19 PM 38.0897 -85.4117 349° North 427 491 40,000 -242 Level Indianapolis Center
Sun 01:13:21 PM 38.2311 -85.4461 349° North 429 494 39,500 -871 Descending Indianapolis Center
Sun 01:14:23 PM 38.3414 -85.4761 348° North 410 472 38,200 -1,500 Descending Indianapolis Center
Sun 01:15:25 PM 38.4536 -85.5053 348° North 410 472 36,400 -1,548 Descending Indianapolis Center
Sun 01:16:27 PM 38.5653 -85.5344 348° North 410 472 35,000 -1,258 Descending Indianapolis Center
Sun 01:17:29 PM 38.6872 -85.5672 348° North 411 473 33,800 -1,258 Descending Indianapolis Center
Sun 01:18:31 PM 38.8017 -85.5953 349° North 418 481 32,400 -1,452 Descending Indianapolis Center
Sun 01:19:33 PM 38.9178 -85.6261 348° North 425 489 30,800 -1,161 Descending Indianapolis Center
Sun 01:20:35 PM 39.0347 -85.6572 348° North 430 495 30,000 -387 Descending Indianapolis Center
Sun 01:21:37 PM 39.1500 -85.6878 348° North 425 489 30,000  Level Indianapolis Center
Sun 01:22:39 PM 39.2914 -85.7250 348° North 433 498 30,000  Level Indianapolis Center
Sun 01:23:41 PM 39.4081 -85.7553 349° North 432 497 30,000 -726 Level Indianapolis Center
Sun 01:24:43 PM 39.5236 -85.7858 348° North 427 491 28,500 -1,463 Descending Indianapolis Center
Sun 01:25:44 PM 39.6356 -85.8161 348° North 418 481 27,000 -1,463 Descending Indianapolis Center
Sun 01:26:46 PM 39.7458 -85.8456 348° North 412 474 25,500 -1,452 Descending Indianapolis Center
Sun 01:27:48 PM 39.8744 -85.8803 348° North 402 463 24,000 -726 Descending Indianapolis Center
Sun 01:28:50 PM 39.9803 -85.9092 348° North 395 455 24,000  Level Indianapolis Center
Sun 01:29:52 PM 40.0875 -85.9367 349° North 396 456 24,000  Level Indianapolis Center
Sun 01:30:54 PM 40.1936 -85.9669 348° North 395 455 24,000 -444 Level Indianapolis Center
Sun 01:31:40 PM 40.2775 -85.9886 349° North 390 449 23,200 -1,111 Descending Chicago Center
Sun 01:32:42 PM 40.3769 -86.0147 349° North 372 428 22,000 -1,597 Descending Chicago Center
Sun 01:33:44 PM 40.4964 -86.0478 348° North 368 423 19,900 -1,935 Descending Chicago Center
Sun 01:34:46 PM 40.5933 -86.0561 356° North 353 406 18,000 -1,597 Descending Chicago Center
Sun 01:35:48 PM 40.6942 -86.0547 North 353 406 16,600 -1,210 Descending Chicago Center
Sun 01:36:50 PM 40.7864 -86.0519 North 335 386 15,500 -1,161 Descending Chicago Center
Sun 01:37:52 PM 40.8761 -86.0508 North 324 373 14,200 -1,355 Descending Chicago Center
Sun 01:38:54 PM 40.9600 -86.0947 338° Northwest 333 383 12,700 -1,452 Descending Chicago Center
Sun 01:39:56 PM 40.9981 -86.2008 295° West 323 372 11,200 -768 Descending Chicago Center
Sun 01:40:59 PM 41.0608 -86.3156 306° West 320 368 11,100 -336 Descending Chicago Center
Sun 01:42:01 PM 41.1122 -86.4114 305° West 319 367 10,500 -484 Descending Chicago Center
Sun 01:43:03 PM 41.1644 -86.5064 306° West 318 366 10,100 -194 Descending Chicago Center
Sun 01:44:05 PM 41.2164 -86.6017 306° West 319 367 10,100  Level Chicago Center
Sun 01:45:07 PM 41.2675 -86.6967 306° West 317 365 10,100  Level Chicago Center
Sun 01:46:09 PM 41.3200 -86.7947 306° West 319 367 10,100  Level Chicago Center
Sun 01:47:11 PM 41.3836 -86.9117 306° West 325 374 10,100 -581 Level Chicago Center
Sun 01:48:13 PM 41.4269 -86.9903 306° West 277 319 8,900 -1,355 Descending Chicago Center
Sun 01:49:15 PM 41.4711 -87.0742 305° West 272 313 7,300 -1,403 Descending Chicago Center
Sun 01:50:17 PM 41.5144 -87.1567 305° West 274 315 6,000 -624 Descending Chicago Center
Sun 01:51:20 PM 41.5203 -87.2544 275° West 273 314 6,000  Level Chicago Center
Sun 01:52:22 PM 41.5275 -87.3553 275° West 274 315 6,000  Level Chicago Center
Sun 01:53:24 PM 41.5336 -87.4742 274° West 271 312 6,000 -194 Level Chicago Center
Sun 01:54:26 PM 41.5358 -87.5708 272° West 265 305 5,600 -871 Descending Chicago Center
Sun 01:55:28 PM 41.5600 -87.6572 291° West 256 295 4,200 -1,258 Descending Chicago Center
Sun 01:56:30 PM 41.6031 -87.7222 312° West 254 292 3,000 -823 Descending Chicago Center
Sun 01:57:32 PM 41.6614 -87.7853 321° Northwest 235 270 2,500 -242 Descending Chicago Center
Sun 01:58:34 PM 41.7078 -87.8281 325° Northwest 219 252 2,500 -290 Level Chicago Center
Sun 01:59:36 PM 41.7456 -87.8094 20° North 171 197 1,900 -726 Descending Chicago Center
Sun 02:00:38 PM 41.7708 -87.7767 44° Northeast 144 166 1,000 -871 Descending Chicago Center
Sun 02:02:00 PM 41.7833 -87.7500 26° Northeast  Level FlightAware Approximate

Login

Don't have an account? Register now (free) for customized features, flight alerts, and more!